sensor_id;sensor_type;location;lat;lon;timestamp;pressure;altitude;pressure_sealevel;temperature;humidity
50282;BME280;36176;51.506;10.272;2023-01-30T00:01:38;99582.16;;;0.48;82.45
50282;BME280;36176;51.506;10.272;2023-01-30T00:04:06;99574.38;;;0.45;83.02
50282;BME280;36176;51.506;10.272;2023-01-30T00:06:33;99568.28;;;0.47;83.28
50282;BME280;36176;51.506;10.272;2023-01-30T00:08:59;99552.59;;;0.50;82.89
50282;BME280;36176;51.506;10.272;2023-01-30T00:11:26;99543.09;;;0.46;83.24
50282;BME280;36176;51.506;10.272;2023-01-30T00:13:55;99523.94;;;0.53;82.99
50282;BME280;36176;51.506;10.272;2023-01-30T00:16:22;99514.34;;;0.57;83.15
50282;BME280;36176;51.506;10.272;2023-01-30T00:18:50;99488.25;;;0.60;82.97
50282;BME280;36176;51.506;10.272;2023-01-30T00:21:17;99490.84;;;0.61;83.23
50282;BME280;36176;51.506;10.272;2023-01-30T00:23:44;99497.78;;;0.64;83.11
50282;BME280;36176;51.506;10.272;2023-01-30T00:26:11;99499.50;;;0.67;83.06
50282;BME280;36176;51.506;10.272;2023-01-30T00:28:39;99487.28;;;0.72;82.65
50282;BME280;36176;51.506;10.272;2023-01-30T00:31:07;99472.50;;;0.75;82.66
50282;BME280;36176;51.506;10.272;2023-01-30T00:33:36;99470.75;;;0.77;82.59
50282;BME280;36176;51.506;10.272;2023-01-30T00:36:04;99495.06;;;0.81;82.77
50282;BME280;36176;51.506;10.272;2023-01-30T00:38:31;99515.06;;;0.82;82.57
50282;BME280;36176;51.506;10.272;2023-01-30T00:40:58;99508.94;;;0.84;82.66
50282;BME280;36176;51.506;10.272;2023-01-30T00:43:26;99482.84;;;0.86;82.51
50282;BME280;36176;51.506;10.272;2023-01-30T00:46:22;99473.25;;;0.88;82.73
50282;BME280;36176;51.506;10.272;2023-01-30T00:49:08;99478.50;;;0.87;82.60
50282;BME280;36176;51.506;10.272;2023-01-30T00:51:35;99468.09;;;0.82;82.79
50282;BME280;36176;51.506;10.272;2023-01-30T00:54:02;99450.63;;;0.90;82.90
50282;BME280;36176;51.506;10.272;2023-01-30T00:56:29;99452.38;;;0.91;82.69
50282;BME280;36176;51.506;10.272;2023-01-30T00:58:56;99439.31;;;0.94;82.81
50282;BME280;36176;51.506;10.272;2023-01-30T01:01:24;99410.56;;;0.96;82.44
50282;BME280;36176;51.506;10.272;2023-01-30T01:03:51;99418.44;;;0.93;82.58
50282;BME280;36176;51.506;10.272;2023-01-30T01:06:18;99417.59;;;0.91;82.15
50282;BME280;36176;51.506;10.272;2023-01-30T01:08:44;99425.41;;;0.91;82.83
50282;BME280;36176;51.506;10.272;2023-01-30T01:11:11;99441.06;;;0.91;82.87
50282;BME280;36176;51.506;10.272;2023-01-30T01:13:54;99444.59;;;0.87;82.24
50282;BME280;36176;51.506;10.272;2023-01-30T01:16:22;99463.72;;;0.87;82.65
50282;BME280;36176;51.506;10.272;2023-01-30T01:18:49;99463.69;;;0.92;82.62
50282;BME280;36176;51.506;10.272;2023-01-30T01:21:17;99449.78;;;0.91;82.59
50282;BME280;36176;51.506;10.272;2023-01-30T01:23:50;99446.28;;;0.91;82.67
50282;BME280;36176;51.506;10.272;2023-01-30T01:26:18;99443.69;;;0.88;83.09
50282;BME280;36176;51.506;10.272;2023-01-30T01:28:45;99438.50;;;0.89;82.48
50282;BME280;36176;51.506;10.272;2023-01-30T01:31:14;99429.72;;;0.93;82.57
50282;BME280;36176;51.506;10.272;2023-01-30T01:33:42;99426.22;;;0.96;82.61
50282;BME280;36176;51.506;10.272;2023-01-30T01:36:09;99423.63;;;0.97;82.27
50282;BME280;36176;51.506;10.272;2023-01-30T01:38:36;99411.44;;;0.98;82.88
50282;BME280;36176;51.506;10.272;2023-01-30T01:41:03;99396.63;;;1.01;82.47
50282;BME280;36176;51.506;10.272;2023-01-30T01:43:35;99415.78;;;0.97;82.41
50282;BME280;36176;51.506;10.272;2023-01-30T01:46:09;99386.22;;;0.97;82.44
50282;BME280;36176;51.506;10.272;2023-01-30T01:48:40;99379.25;;;0.97;82.66
50282;BME280;36176;51.506;10.272;2023-01-30T01:51:17;99372.28;;;1.01;82.49
50282;BME280;36176;51.506;10.272;2023-01-30T01:53:50;99368.78;;;1.03;82.21
50282;BME280;36176;51.506;10.272;2023-01-30T01:56:20;99368.78;;;1.02;82.11
50282;BME280;36176;51.506;10.272;2023-01-30T01:58:54;99370.47;;;1.08;82.67
50282;BME280;36176;51.506;10.272;2023-01-30T02:01:22;99349.53;;;1.15;82.08
50282;BME280;36176;51.506;10.272;2023-01-30T02:03:52;99344.31;;;1.14;82.07
50282;BME280;36176;51.506;10.272;2023-01-30T02:06:21;99332.16;;;1.13;82.13
50282;BME280;36176;51.506;10.272;2023-01-30T02:08:52;99305.16;;;1.15;81.98
50282;BME280;36176;51.506;10.272;2023-01-30T02:14:03;99290.31;;;1.19;82.16
50282;BME280;36176;51.506;10.272;2023-01-30T02:16:32;99298.94;;;1.24;82.08
50282;BME280;36176;51.506;10.272;2023-01-30T02:18:59;99291.16;;;1.22;81.86
50282;BME280;36176;51.506;10.272;2023-01-30T02:21:52;99293.72;;;1.24;82.14
50282;BME280;36176;51.506;10.272;2023-01-30T02:24:43;99282.44;;;1.23;82.19
50282;BME280;36176;51.506;10.272;2023-01-30T02:33:13;99246.75;;;1.24;83.25
50282;BME280;36176;51.506;10.272;2023-01-30T02:36:03;99271.03;;;1.31;82.91
50282;BME280;36176;51.506;10.272;2023-01-30T02:44:33;99237.84;;;1.40;82.46
50282;BME280;36176;51.506;10.272;2023-01-30T02:47:16;99234.31;;;1.43;82.58
50282;BME280;36176;51.506;10.272;2023-01-30T02:49:47;99223.97;;;1.37;83.60
50282;BME280;36176;51.506;10.272;2023-01-30T02:52:17;99220.53;;;1.32;84.29
50282;BME280;36176;51.506;10.272;2023-01-30T02:54:44;99210.25;;;1.22;84.07
50282;BME280;36176;51.506;10.272;2023-01-30T02:57:18;99211.91;;;1.26;84.98
50282;BME280;36176;51.506;10.272;2023-01-30T02:59:48;99208.44;;;1.26;84.88
50282;BME280;36176;51.506;10.272;2023-01-30T03:06:07;99199.13;;;1.06;87.71
50282;BME280;36176;51.506;10.272;2023-01-30T03:08:23;99217.50;;;0.97;88.05
50282;BME280;36176;51.506;10.272;2023-01-30T03:10:59;99207.94;;;0.98;88.61
50282;BME280;36176;51.506;10.272;2023-01-30T03:13:47;99204.56;;;0.90;89.54
50282;BME280;36176;51.506;10.272;2023-01-30T03:16:28;99196.78;;;0.87;90.12
50282;BME280;36176;51.506;10.272;2023-01-30T03:19:02;99195.84;;;0.91;90.18
50282;BME280;36176;51.506;10.272;2023-01-30T03:21:30;99186.34;;;0.87;90.79
50282;BME280;36176;51.506;10.272;2023-01-30T03:23:57;99182.00;;;0.85;90.24
50282;BME280;36176;51.506;10.272;2023-01-30T03:26:28;99178.53;;;0.85;90.93
50282;BME280;36176;51.506;10.272;2023-01-30T03:28:56;99158.56;;;0.84;91.59
50282;BME280;36176;51.506;10.272;2023-01-30T03:31:24;99142.97;;;0.79;91.98
50282;BME280;36176;51.506;10.272;2023-01-30T03:33:53;99140.38;;;0.76;92.34
50282;BME280;36176;51.506;10.272;2023-01-30T03:36:20;99148.19;;;0.79;92.29
50282;BME280;36176;51.506;10.272;2023-01-30T03:38:47;99138.56;;;0.84;91.80
50282;BME280;36176;51.506;10.272;2023-01-30T03:41:14;99137.78;;;0.76;92.76
50282;BME280;36176;51.506;10.272;2023-01-30T03:43:41;99133.41;;;0.80;93.03
50282;BME280;36176;51.506;10.272;2023-01-30T03:46:08;99143.84;;;0.80;93.18
50282;BME280;36176;51.506;10.272;2023-01-30T03:48:35;99132.50;;;0.81;93.29
50282;BME280;36176;51.506;10.272;2023-01-30T03:51:02;99146.28;;;0.91;93.92
50282;BME280;36176;51.506;10.272;2023-01-30T03:53:29;99141.88;;;0.96;94.09
50282;BME280;36176;51.506;10.272;2023-01-30T03:55:56;99134.03;;;0.99;94.27
50282;BME280;36176;51.506;10.272;2023-01-30T03:58:23;99136.56;;;1.03;94.62
50282;BME280;36176;51.506;10.272;2023-01-30T04:00:50;99138.22;;;1.09;94.10
50282;BME280;36176;51.506;10.272;2023-01-30T04:03:17;99144.34;;;1.08;93.98
50282;BME280;36176;51.506;10.272;2023-01-30T04:05:45;99127.84;;;1.06;94.06
50282;BME280;36176;51.506;10.272;2023-01-30T04:08:13;99134.81;;;1.04;94.79
50282;BME280;36176;51.506;10.272;2023-01-30T04:10:40;99134.69;;;1.13;95.03
50282;BME280;36176;51.506;10.272;2023-01-30T04:13:07;99129.41;;;1.16;95.13
50282;BME280;36176;51.506;10.272;2023-01-30T04:15:34;99121.53;;;1.21;94.82
50282;BME280;36176;51.506;10.272;2023-01-30T04:18:01;99126.72;;;1.22;95.00
50282;BME280;36176;51.506;10.272;2023-01-30T04:20:28;99113.69;;;1.22;94.55
50282;BME280;36176;51.506;10.272;2023-01-30T04:22:55;99103.19;;;1.24;95.02
50282;BME280;36176;51.506;10.272;2023-01-30T04:25:22;99100.56;;;1.27;95.20
50282;BME280;36176;51.506;10.272;2023-01-30T04:27:49;99080.47;;;1.31;95.28
50282;BME280;36176;51.506;10.272;2023-01-30T04:30:16;99074.34;;;1.33;95.16
50282;BME280;36176;51.506;10.272;2023-01-30T04:32:43;99078.53;;;1.43;95.02
50282;BME280;36176;51.506;10.272;2023-01-30T04:35:10;99079.28;;;1.50;94.99
50282;BME280;36176;51.506;10.272;2023-01-30T04:37:37;99077.47;;;1.55;94.83
50282;BME280;36176;51.506;10.272;2023-01-30T04:40:05;99076.53;;;1.59;95.28
50282;BME280;36176;51.506;10.272;2023-01-30T04:42:32;99078.16;;;1.65;94.78
50282;BME280;36176;51.506;10.272;2023-01-30T04:44:59;99077.28;;;1.66;94.81
50282;BME280;36176;51.506;10.272;2023-01-30T04:47:26;99061.47;;;1.74;94.41
50282;BME280;36176;51.506;10.272;2023-01-30T04:49:53;99066.69;;;1.75;95.11
50282;BME280;36176;51.506;10.272;2023-01-30T04:52:20;99061.38;;;1.80;94.47
50282;BME280;36176;51.506;10.272;2023-01-30T04:54:47;99052.63;;;1.81;94.65
50282;BME280;36176;51.506;10.272;2023-01-30T04:57:14;99048.28;;;1.81;94.83
50282;BME280;36176;51.506;10.272;2023-01-30T04:59:41;99054.34;;;1.83;95.29
50282;BME280;36176;51.506;10.272;2023-01-30T05:02:08;99039.56;;;1.81;95.29
50282;BME280;36176;51.506;10.272;2023-01-30T05:04:35;99044.03;;;1.76;96.09
50282;BME280;36176;51.506;10.272;2023-01-30T05:07:02;99044.03;;;1.76;95.29
50282;BME280;36176;51.506;10.272;2023-01-30T05:09:29;99037.06;;;1.75;95.37
50282;BME280;36176;51.506;10.272;2023-01-30T05:11:56;99035.34;;;1.75;96.42
50282;BME280;36176;51.506;10.272;2023-01-30T05:14:23;99036.19;;;1.76;96.74
50282;BME280;36176;51.506;10.272;2023-01-30T05:16:50;99032.72;;;1.75;96.78
50282;BME280;36176;51.506;10.272;2023-01-30T05:19:17;99026.72;;;1.70;96.90
50282;BME280;36176;51.506;10.272;2023-01-30T05:21:44;99031.13;;;1.66;97.78
50282;BME280;36176;51.506;10.272;2023-01-30T05:24:11;99019.00;;;1.64;97.77
50282;BME280;36176;51.506;10.272;2023-01-30T05:26:38;99033.75;;;1.66;97.73
50282;BME280;36176;51.506;10.272;2023-01-30T05:29:05;99031.06;;;1.71;97.64
50282;BME280;36176;51.506;10.272;2023-01-30T05:31:32;99018.84;;;1.73;98.39
50282;BME280;36176;51.506;10.272;2023-01-30T05:34:01;99010.16;;;1.73;98.00
50282;BME280;36176;51.506;10.272;2023-01-30T05:36:28;99011.84;;;1.74;98.49
50282;BME280;36176;51.506;10.272;2023-01-30T05:38:55;99008.41;;;1.72;98.63
50282;BME280;36176;51.506;10.272;2023-01-30T05:41:22;98991.78;;;1.76;98.95
50282;BME280;36176;51.506;10.272;2023-01-30T05:43:49;98995.34;;;1.72;99.30
50282;BME280;36176;51.506;10.272;2023-01-30T05:46:17;98983.97;;;1.76;99.13
50282;BME280;36176;51.506;10.272;2023-01-30T05:48:44;98989.25;;;1.73;99.55
50282;BME280;36176;51.506;10.272;2023-01-30T05:51:17;98985.72;;;1.74;99.28
50282;BME280;36176;51.506;10.272;2023-01-30T05:53:44;98973.56;;;1.73;99.91
50282;BME280;36176;51.506;10.272;2023-01-30T05:56:12;98983.22;;;1.67;100.00
50282;BME280;36176;51.506;10.272;2023-01-30T05:58:39;98989.25;;;1.73;100.00
50282;BME280;36176;51.506;10.272;2023-01-30T06:01:09;98973.63;;;1.69;100.00
50282;BME280;36176;51.506;10.272;2023-01-30T06:03:37;98977.13;;;1.68;100.00
50282;BME280;36176;51.506;10.272;2023-01-30T06:06:05;98980.59;;;1.69;100.00
50282;BME280;36176;51.506;10.272;2023-01-30T06:08:32;98980.69;;;1.64;100.00
50282;BME280;36176;51.506;10.272;2023-01-30T06:11:04;98988.50;;;1.64;100.00
50282;BME280;36176;51.506;10.272;2023-01-30T06:13:31;98977.22;;;1.62;100.00
50282;BME280;36176;51.506;10.272;2023-01-30T06:15:58;98970.38;;;1.58;100.00
50282;BME280;36176;51.506;10.272;2023-01-30T06:18:26;98974.69;;;1.58;100.00
50282;BME280;36176;51.506;10.272;2023-01-30T06:20:53;98979.91;;;1.59;100.00
50282;BME280;36176;51.506;10.272;2023-01-30T06:23:20;98979.81;;;1.64;100.00
50282;BME280;36176;51.506;10.272;2023-01-30T06:25:50;98977.22;;;1.62;100.00
50282;BME280;36176;51.506;10.272;2023-01-30T06:28:21;98988.59;;;1.60;100.00
50282;BME280;36176;51.506;10.272;2023-01-30T06:30:48;98974.66;;;1.61;100.00
50282;BME280;36176;51.506;10.272;2023-01-30T06:33:15;98985.13;;;1.59;100.00
50282;BME280;36176;51.506;10.272;2023-01-30T06:35:43;98982.59;;;1.56;100.00
50282;BME280;36176;51.506;10.272;2023-01-30T06:38:10;98984.34;;;1.56;100.00
50282;BME280;36176;51.506;10.272;2023-01-30T06:40:43;98983.44;;;1.58;100.00
50282;BME280;36176;51.506;10.272;2023-01-30T06:43:11;98979.13;;;1.56;100.00
50282;BME280;36176;51.506;10.272;2023-01-30T06:45:38;98973.75;;;1.62;100.00
50282;BME280;36176;51.506;10.272;2023-01-30T06:48:06;98978.06;;;1.64;100.00
50282;BME280;36176;51.506;10.272;2023-01-30T06:50:32;98962.47;;;1.61;100.00
50282;BME280;36176;51.506;10.272;2023-01-30T06:53:02;98968.38;;;1.69;100.00
50282;BME280;36176;51.506;10.272;2023-01-30T06:55:33;98968.38;;;1.71;100.00
50282;BME280;36176;51.506;10.272;2023-01-30T06:58:09;98969.22;;;1.73;100.00
50282;BME280;36176;51.506;10.272;2023-01-30T07:00:39;98974.44;;;1.72;100.00
50282;BME280;36176;51.506;10.272;2023-01-30T07:03:10;98981.44;;;1.71;100.00
50282;BME280;36176;51.506;10.272;2023-01-30T07:05:38;98981.50;;;1.66;100.00
50282;BME280;36176;51.506;10.272;2023-01-30T07:08:06;98989.28;;;1.69;100.00
50282;BME280;36176;51.506;10.272;2023-01-30T07:10:33;98990.13;;;1.72;100.00
50282;BME280;36176;51.506;10.272;2023-01-30T07:13:02;98979.59;;;1.76;100.00
50282;BME280;36176;51.506;10.272;2023-01-30T07:15:29;98988.34;;;1.74;100.00
50282;BME280;36176;51.506;10.272;2023-01-30T07:17:57;98985.66;;;1.77;100.00
50282;BME280;36176;51.506;10.272;2023-01-30T07:20:24;98990.97;;;1.74;100.00
50282;BME280;36176;51.506;10.272;2023-01-30T07:22:52;98987.41;;;1.78;100.00
50282;BME280;36176;51.506;10.272;2023-01-30T07:25:21;98982.19;;;1.78;100.00
50282;BME280;36176;51.506;10.272;2023-01-30T07:27:52;98991.72;;;1.79;100.00
50282;BME280;36176;51.506;10.272;2023-01-30T07:30:19;98988.25;;;1.78;100.00
50282;BME280;36176;51.506;10.272;2023-01-30T07:32:54;98986.47;;;1.80;100.00
50282;BME280;36176;51.506;10.272;2023-01-30T07:35:29;98993.56;;;1.75;100.00
50282;BME280;36176;51.506;10.272;2023-01-30T07:38:11;98996.13;;;1.77;100.00
50282;BME280;36176;51.506;10.272;2023-01-30T07:40:38;99007.41;;;1.77;100.00
50282;BME280;36176;51.506;10.272;2023-01-30T07:43:07;99012.56;;;1.82;100.00
50282;BME280;36176;51.506;10.272;2023-01-30T07:45:40;99003.00;;;1.82;100.00
50282;BME280;36176;51.506;10.272;2023-01-30T07:48:09;98999.50;;;1.82;100.00
50282;BME280;36176;51.506;10.272;2023-01-30T07:50:37;98998.69;;;1.80;100.00
50282;BME280;36176;51.506;10.272;2023-01-30T07:53:06;99003.00;;;1.82;100.00
50282;BME280;36176;51.506;10.272;2023-01-30T07:55:33;99008.16;;;1.84;100.00
50282;BME280;36176;51.506;10.272;2023-01-30T07:58:01;99003.72;;;1.89;100.00
50282;BME280;36176;51.506;10.272;2023-01-30T08:00:28;99000.22;;;1.90;100.00
50282;BME280;36176;51.506;10.272;2023-01-30T08:02:55;99001.06;;;1.90;100.00
50282;BME280;36176;51.506;10.272;2023-01-30T08:05:22;99000.13;;;1.95;100.00
50282;BME280;36176;51.506;10.272;2023-01-30T08:07:49;98990.53;;;1.95;100.00
50282;BME280;36176;51.506;10.272;2023-01-30T08:10:16;98989.69;;;1.95;100.00
50282;BME280;36176;51.506;10.272;2023-01-30T08:12:44;99002.59;;;2.01;100.00
50282;BME280;36176;51.506;10.272;2023-01-30T08:15:10;98986.16;;;1.96;100.00
50282;BME280;36176;51.506;10.272;2023-01-30T08:17:37;98987.16;;;1.90;100.00
50282;BME280;36176;51.506;10.272;2023-01-30T08:20:05;98994.09;;;1.91;100.00
50282;BME280;36176;51.506;10.272;2023-01-30T08:22:32;98996.78;;;1.88;100.00
50282;BME280;36176;51.506;10.272;2023-01-30T08:24:59;98999.53;;;1.80;100.00
50282;BME280;36176;51.506;10.272;2023-01-30T08:27:40;98988.34;;;1.74;100.00
50282;BME280;36176;51.506;10.272;2023-01-30T08:30:08;98991.13;;;1.64;100.00
50282;BME280;36176;51.506;10.272;2023-01-30T08:32:40;98999.88;;;1.63;100.00
50282;BME280;36176;51.506;10.272;2023-01-30T08:35:07;98991.28;;;1.55;100.00
50282;BME280;36176;51.506;10.272;2023-01-30T08:37:35;99000.97;;;1.50;100.00
50282;BME280;36176;51.506;10.272;2023-01-30T08:40:02;99000.13;;;1.48;100.00
50282;BME280;36176;51.506;10.272;2023-01-30T08:42:29;98996.56;;;1.52;100.00
50282;BME280;36176;51.506;10.272;2023-01-30T08:44:59;99005.22;;;1.56;100.00
50282;BME280;36176;51.506;10.272;2023-01-30T08:47:27;98990.34;;;1.61;100.00
50282;BME280;36176;51.506;10.272;2023-01-30T08:49:54;98987.72;;;1.61;100.00
50282;BME280;36176;51.506;10.272;2023-01-30T08:52:21;98998.19;;;1.59;100.00
50282;BME280;36176;51.506;10.272;2023-01-30T08:54:48;99003.47;;;1.56;100.00
50282;BME280;36176;51.506;10.272;2023-01-30T08:57:15;98995.59;;;1.58;100.00
50282;BME280;36176;51.506;10.272;2023-01-30T08:59:42;98998.19;;;1.59;100.00
50282;BME280;36176;51.506;10.272;2023-01-30T09:02:10;99006.03;;;1.59;100.00
50282;BME280;36176;51.506;10.272;2023-01-30T09:04:38;99005.25;;;1.54;100.00
50282;BME280;36176;51.506;10.272;2023-01-30T09:07:05;99013.91;;;1.56;100.00
50282;BME280;36176;51.506;10.272;2023-01-30T09:09:32;99025.22;;;1.57;100.00
50282;BME280;36176;51.506;10.272;2023-01-30T09:11:59;99024.38;;;1.56;100.00
50282;BME280;36176;51.506;10.272;2023-01-30T09:14:26;99021.69;;;1.61;100.00
50282;BME280;36176;51.506;10.272;2023-01-30T09:16:53;99013.69;;;1.68;100.00
50282;BME280;36176;51.506;10.272;2023-01-30T09:19:24;99022.31;;;1.74;100.00
50282;BME280;36176;51.506;10.272;2023-01-30T09:21:51;99024.00;;;1.76;100.00
50282;BME280;36176;51.506;10.272;2023-01-30T09:24:19;99017.94;;;1.74;100.00
50282;BME280;36176;51.506;10.272;2023-01-30T09:26:47;99028.19;;;1.85;100.00
50282;BME280;36176;51.506;10.272;2023-01-30T09:29:14;99024.59;;;1.90;100.00
50282;BME280;36176;51.506;10.272;2023-01-30T09:31:41;99023.50;;;2.01;100.00
50282;BME280;36176;51.506;10.272;2023-01-30T09:34:08;99014.63;;;2.11;100.00
50282;BME280;36176;51.506;10.272;2023-01-30T09:36:37;99013.56;;;2.20;100.00
50282;BME280;36176;51.506;10.272;2023-01-30T09:39:05;99007.25;;;2.30;100.00
50282;BME280;36176;51.506;10.272;2023-01-30T09:42:06;99003.66;;;2.34;100.00
50282;BME280;36176;51.506;10.272;2023-01-30T09:44:58;99005.34;;;2.38;100.00
50282;BME280;36176;51.506;10.272;2023-01-30T09:50:58;99012.28;;;2.39;100.00
50282;BME280;36176;51.506;10.272;2023-01-30T09:56:08;99017.47;;;2.81;100.00
50282;BME280;36176;51.506;10.272;2023-01-30T09:58:54;99026.16;;;3.55;100.00
50282;BME280;36176;51.506;10.272;2023-01-30T10:01:31;99037.78;;;3.77;97.89
50282;BME280;36176;51.506;10.272;2023-01-30T10:04:10;99039.81;;;3.66;97.35
50282;BME280;36176;51.506;10.272;2023-01-30T10:06:50;99037.50;;;3.54;97.89
50282;BME280;36176;51.506;10.272;2023-01-30T10:12:10;99037.38;;;3.58;97.18
50282;BME280;36176;51.506;10.272;2023-01-30T10:20:33;99017.56;;;3.50;96.97
50282;BME280;36176;51.506;10.272;2023-01-30T10:25:52;99021.34;;;3.71;96.47
50282;BME280;36176;51.506;10.272;2023-01-30T10:28:25;99023.50;;;3.88;96.19
50282;BME280;36176;51.506;10.272;2023-01-30T10:31:03;99005.00;;;3.94;95.56
50282;BME280;36176;51.506;10.272;2023-01-30T10:33:32;98999.38;;;4.67;94.54
50282;BME280;36176;51.506;10.272;2023-01-30T10:36:13;98999.84;;;5.35;90.14
50282;BME280;36176;51.506;10.272;2023-01-30T10:38:51;99000.56;;;5.65;87.77
50282;BME280;36176;51.506;10.272;2023-01-30T10:41:23;98994.28;;;5.69;87.17
50282;BME280;36176;51.506;10.272;2023-01-30T10:44:02;99007.31;;;5.47;87.11
50282;BME280;36176;51.506;10.272;2023-01-30T10:49:42;99004.50;;;6.03;86.06
50282;BME280;36176;51.506;10.272;2023-01-30T10:55:19;98998.97;;;5.61;85.19
50282;BME280;36176;51.506;10.272;2023-01-30T10:58:31;99006.38;;;5.48;86.62
50282;BME280;36176;51.506;10.272;2023-01-30T11:03:45;99014.19;;;5.51;83.79
50282;BME280;36176;51.506;10.272;2023-01-30T11:06:16;99004.34;;;5.31;83.89
50282;BME280;36176;51.506;10.272;2023-01-30T11:08:45;99006.06;;;5.05;84.77
50282;BME280;36176;51.506;10.272;2023-01-30T11:14:09;99010.41;;;4.78;87.69
50282;BME280;36176;51.506;10.272;2023-01-30T11:16:52;98995.41;;;4.54;86.93
50282;BME280;36176;51.506;10.272;2023-01-30T11:19:30;98993.75;;;4.51;88.81
50282;BME280;36176;51.506;10.272;2023-01-30T11:22:04;98997.19;;;4.53;88.96
50282;BME280;36176;51.506;10.272;2023-01-30T11:24:39;98988.50;;;4.51;88.43
50282;BME280;36176;51.506;10.272;2023-01-30T11:27:10;98997.25;;;4.50;88.63
50282;BME280;36176;51.506;10.272;2023-01-30T11:29:38;98993.72;;;4.53;88.44
50282;BME280;36176;51.506;10.272;2023-01-30T11:32:11;98991.97;;;4.80;88.84
50282;BME280;36176;51.506;10.272;2023-01-30T11:34:42;98996.16;;;5.14;87.69
50282;BME280;36176;51.506;10.272;2023-01-30T11:37:28;98992.22;;;5.27;86.77
50282;BME280;36176;51.506;10.272;2023-01-30T11:39:56;98982.84;;;5.20;86.37
50282;BME280;36176;51.506;10.272;2023-01-30T11:42:31;98981.53;;;5.05;86.51
50282;BME280;36176;51.506;10.272;2023-01-30T11:44:59;98978.22;;;5.00;86.78
50282;BME280;36176;51.506;10.272;2023-01-30T11:47:55;98972.28;;;4.93;86.26
50282;BME280;36176;51.506;10.272;2023-01-30T11:50:39;98968.22;;;4.84;86.04
50282;BME280;36176;51.506;10.272;2023-01-30T11:53:22;98960.81;;;4.69;85.23
50282;BME280;36176;51.506;10.272;2023-01-30T11:55:56;98950.56;;;4.61;85.78
50282;BME280;36176;51.506;10.272;2023-01-30T11:58:34;98966.94;;;4.41;86.67
50282;BME280;36176;51.506;10.272;2023-01-30T12:01:02;98960.00;;;4.39;88.14
50282;BME280;36176;51.506;10.272;2023-01-30T12:03:31;98971.53;;;4.33;88.62
50282;BME280;36176;51.506;10.272;2023-01-30T12:05:59;98966.25;;;4.35;89.18
50282;BME280;36176;51.506;10.272;2023-01-30T12:08:34;98986.25;;;4.39;89.49
50282;BME280;36176;51.506;10.272;2023-01-30T12:11:41;98997.47;;;4.14;89.69
50282;BME280;36176;51.506;10.272;2023-01-30T12:14:24;98997.38;;;3.86;90.30
50282;BME280;36176;51.506;10.272;2023-01-30T12:17:07;98992.00;;;3.58;91.99
50282;BME280;36176;51.506;10.272;2023-01-30T12:25:35;98992.69;;;3.30;96.62
50282;BME280;36176;51.506;10.272;2023-01-30T12:28:17;98978.31;;;3.47;96.81
50282;BME280;36176;51.506;10.272;2023-01-30T12:30:53;98997.28;;;3.56;96.51
50282;BME280;36176;51.506;10.272;2023-01-30T12:33:27;98997.03;;;3.66;96.05
50282;BME280;36176;51.506;10.272;2023-01-30T12:36:15;98980.25;;;3.73;96.12
50282;BME280;36176;51.506;10.272;2023-01-30T12:38:54;98968.66;;;3.81;95.62
50282;BME280;36176;51.506;10.272;2023-01-30T12:44:35;98974.47;;;3.60;94.18
50282;BME280;36176;51.506;10.272;2023-01-30T12:47:28;98958.78;;;3.58;94.99
50282;BME280;36176;51.506;10.272;2023-01-30T12:50:22;98958.91;;;3.54;95.37
50282;BME280;36176;51.506;10.272;2023-01-30T12:53:13;98962.22;;;3.62;95.86
50282;BME280;36176;51.506;10.272;2023-01-30T12:56:08;98951.06;;;3.85;94.79
50282;BME280;36176;51.506;10.272;2023-01-30T12:58:55;98954.41;;;4.21;93.65
50282;BME280;36176;51.506;10.272;2023-01-30T13:04:35;98927.66;;;4.66;90.75
50282;BME280;36176;51.506;10.272;2023-01-30T13:10:26;98922.38;;;4.95;87.95
50282;BME280;36176;51.506;10.272;2023-01-30T13:19:19;98922.78;;;5.09;84.31
50282;BME280;36176;51.506;10.272;2023-01-30T13:22:09;98903.22;;;5.18;82.42
50282;BME280;36176;51.506;10.272;2023-01-30T13:27:28;98907.13;;;5.31;80.71
50282;BME280;36176;51.506;10.272;2023-01-30T13:30:00;98902.94;;;5.27;80.59
50282;BME280;36176;51.506;10.272;2023-01-30T13:32:39;98904.03;;;5.20;80.83
50282;BME280;36176;51.506;10.272;2023-01-30T13:35:19;98906.00;;;5.13;81.22
50282;BME280;36176;51.506;10.272;2023-01-30T13:37:50;98899.38;;;5.03;80.46
50282;BME280;36176;51.506;10.272;2023-01-30T13:40:21;98921.06;;;5.08;80.39
50282;BME280;36176;51.506;10.272;2023-01-30T13:43:00;98932.22;;;5.15;79.03
50282;BME280;36176;51.506;10.272;2023-01-30T13:45:32;98943.44;;;5.20;79.40
50282;BME280;36176;51.506;10.272;2023-01-30T13:51:22;98963.13;;;5.06;79.75
50282;BME280;36176;51.506;10.272;2023-01-30T13:54:25;98979.28;;;4.94;79.50
50282;BME280;36176;51.506;10.272;2023-01-30T13:57:21;99001.78;;;5.03;81.40
50282;BME280;36176;51.506;10.272;2023-01-30T14:00:18;99015.81;;;5.00;82.48
50282;BME280;36176;51.506;10.272;2023-01-30T14:08:20;99035.88;;;4.45;87.07
50282;BME280;36176;51.506;10.272;2023-01-30T14:10:49;99041.94;;;4.47;88.02
50282;BME280;36176;51.506;10.272;2023-01-30T14:13:16;99036.59;;;4.50;88.31
50282;BME280;36176;51.506;10.272;2023-01-30T14:15:56;99043.13;;;4.37;89.31
50282;BME280;36176;51.506;10.272;2023-01-30T14:18:30;99034.69;;;4.25;88.53
50282;BME280;36176;51.506;10.272;2023-01-30T14:24:00;99048.66;;;4.26;87.16
50282;BME280;36176;51.506;10.272;2023-01-30T14:32:34;99056.72;;;4.51;84.28
50282;BME280;36176;51.506;10.272;2023-01-30T14:40:29;99079.72;;;4.41;82.56
50282;BME280;36176;51.506;10.272;2023-01-30T14:48:39;99103.44;;;4.38;83.88
50282;BME280;36176;51.506;10.272;2023-01-30T14:51:57;99100.97;;;4.32;84.87
50282;BME280;36176;51.506;10.272;2023-01-30T14:57:03;99111.53;;;4.29;85.08
50282;BME280;36176;51.506;10.272;2023-01-30T14:59:38;99123.84;;;4.27;85.14
50282;BME280;36176;51.506;10.272;2023-01-30T15:07:29;99146.59;;;4.26;84.66
50282;BME280;36176;51.506;10.272;2023-01-30T15:10:00;99151.00;;;4.24;84.73